sensor_id;sensor_type;location;lat;lon;timestamp;pressure;altitude;pressure_sealevel;temperature;humidity
10097;BME280;5087;42.662;23.466;2022-07-11T00:00:05;95360.44;;;13.37;100.00
10097;BME280;5087;42.662;23.466;2022-07-11T00:02:33;95358.00;;;13.23;100.00
10097;BME280;5087;42.662;23.466;2022-07-11T00:05:00;95363.66;;;13.18;100.00
10097;BME280;5087;42.662;23.466;2022-07-11T00:07:28;95363.06;;;13.12;100.00
10097;BME280;5087;42.662;23.466;2022-07-11T00:09:56;95382.25;;;13.16;100.00
10097;BME280;5087;42.662;23.466;2022-07-11T00:12:23;95370.91;;;13.14;100.00
10097;BME280;5087;42.662;23.466;2022-07-11T00:14:53;95367.28;;;13.22;100.00
10097;BME280;5087;42.662;23.466;2022-07-11T00:17:21;95370.97;;;13.26;100.00
10097;BME280;5087;42.662;23.466;2022-07-11T00:19:49;95369.63;;;13.33;100.00
10097;BME280;5087;42.662;23.466;2022-07-11T00:22:16;95347.78;;;13.20;100.00
10097;BME280;5087;42.662;23.466;2022-07-11T00:24:43;95351.94;;;13.39;100.00
10097;BME280;5087;42.662;23.466;2022-07-11T00:27:10;95371.75;;;13.48;100.00
10097;BME280;5087;42.662;23.466;2022-07-11T00:29:39;95372.81;;;13.35;100.00
10097;BME280;5087;42.662;23.466;2022-07-11T00:32:08;95377.19;;;13.27;100.00
10097;BME280;5087;42.662;23.466;2022-07-11T00:34:35;95351.09;;;13.05;100.00
10097;BME280;5087;42.662;23.466;2022-07-11T00:37:04;95373.16;;;13.12;100.00
10097;BME280;5087;42.662;23.466;2022-07-11T00:39:31;95348.97;;;12.89;100.00
10097;BME280;5087;42.662;23.466;2022-07-11T00:41:58;95378.63;;;13.12;100.00
10097;BME280;5087;42.662;23.466;2022-07-11T00:44:25;95366.06;;;12.98;100.00
10097;BME280;5087;42.662;23.466;2022-07-11T00:46:52;95379.81;;;12.81;100.00
10097;BME280;5087;42.662;23.466;2022-07-11T00:49:21;95376.19;;;12.68;100.00
10097;BME280;5087;42.662;23.466;2022-07-11T00:51:49;95390.47;;;12.65;100.00
10097;BME280;5087;42.662;23.466;2022-07-11T00:54:17;95392.59;;;12.59;100.00
10097;BME280;5087;42.662;23.466;2022-07-11T00:56:45;95373.91;;;12.49;100.00
10097;BME280;5087;42.662;23.466;2022-07-11T00:59:17;95391.31;;;12.57;100.00
10097;BME280;5087;42.662;23.466;2022-07-11T01:01:45;95377.13;;;12.42;100.00
10097;BME280;5087;42.662;23.466;2022-07-11T01:04:12;95386.59;;;12.45;100.00
10097;BME280;5087;42.662;23.466;2022-07-11T01:06:41;95393.59;;;12.46;100.00
10097;BME280;5087;42.662;23.466;2022-07-11T01:09:08;95397.00;;;12.43;100.00
10097;BME280;5087;42.662;23.466;2022-07-11T01:11:35;95399.16;;;12.58;100.00
10097;BME280;5087;42.662;23.466;2022-07-11T01:14:02;95394.91;;;12.70;100.00
10097;BME280;5087;42.662;23.466;2022-07-11T01:16:29;95393.31;;;12.69;100.00
10097;BME280;5087;42.662;23.466;2022-07-11T01:18:57;95404.22;;;12.69;100.00
10097;BME280;5087;42.662;23.466;2022-07-11T01:21:26;95378.03;;;12.55;100.00
10097;BME280;5087;42.662;23.466;2022-07-11T01:23:57;95373.53;;;12.59;100.00
10097;BME280;5087;42.662;23.466;2022-07-11T01:26:25;95384.03;;;12.70;100.00
10097;BME280;5087;42.662;23.466;2022-07-11T01:28:52;95354.47;;;12.59;100.00
10097;BME280;5087;42.662;23.466;2022-07-11T01:31:21;95367.81;;;12.73;100.00
10097;BME280;5087;42.662;23.466;2022-07-11T01:33:48;95381.41;;;12.82;100.00
10097;BME280;5087;42.662;23.466;2022-07-11T01:36:16;95379.44;;;12.61;100.00
10097;BME280;5087;42.662;23.466;2022-07-11T01:38:44;95361.75;;;12.16;100.00
10097;BME280;5087;42.662;23.466;2022-07-11T01:41:12;95361.75;;;12.16;100.00
10097;BME280;5087;42.662;23.466;2022-07-11T01:43:39;95373.63;;;12.03;100.00
10097;BME280;5087;42.662;23.466;2022-07-11T01:46:06;95388.03;;;12.03;100.00
10097;BME280;5087;42.662;23.466;2022-07-11T01:48:34;95378.13;;;11.81;100.00
10097;BME280;5087;42.662;23.466;2022-07-11T01:51:01;95390.84;;;11.68;100.00
10097;BME280;5087;42.662;23.466;2022-07-11T01:53:28;95401.38;;;11.61;100.00
10097;BME280;5087;42.662;23.466;2022-07-11T01:55:55;95403.78;;;11.54;100.00
10097;BME280;5087;42.662;23.466;2022-07-11T01:58:24;95328.06;;;11.00;100.00
10097;BME280;5087;42.662;23.466;2022-07-11T02:00:51;95416.91;;;11.43;100.00
10097;BME280;5087;42.662;23.466;2022-07-11T02:03:18;95412.75;;;11.37;100.00
10097;BME280;5087;42.662;23.466;2022-07-11T02:05:45;95415.66;;;11.32;100.00
10097;BME280;5087;42.662;23.466;2022-07-11T02:08:13;95413.91;;;11.27;100.00
10097;BME280;5087;42.662;23.466;2022-07-11T02:10:43;95405.25;;;11.16;100.00
10097;BME280;5087;42.662;23.466;2022-07-11T02:13:12;95408.31;;;11.23;100.00
10097;BME280;5087;42.662;23.466;2022-07-11T02:15:42;95411.19;;;11.18;100.00
10097;BME280;5087;42.662;23.466;2022-07-11T02:18:10;95412.94;;;11.05;100.00
10097;BME280;5087;42.662;23.466;2022-07-11T02:20:38;95424.13;;;11.13;100.00
10097;BME280;5087;42.662;23.466;2022-07-11T02:23:06;95429.56;;;11.13;100.00
10097;BME280;5087;42.662;23.466;2022-07-11T02:25:34;95427.94;;;11.12;100.00
10097;BME280;5087;42.662;23.466;2022-07-11T02:28:04;95409.09;;;11.06;100.00
10097;BME280;5087;42.662;23.466;2022-07-11T02:30:34;95413.88;;;11.09;100.00
10097;BME280;5087;42.662;23.466;2022-07-11T02:33:03;95422.06;;;11.18;100.00
10097;BME280;5087;42.662;23.466;2022-07-11T02:35:30;95438.84;;;11.29;100.00
10097;BME280;5087;42.662;23.466;2022-07-11T02:37:57;95430.19;;;11.09;100.00
10097;BME280;5087;42.662;23.466;2022-07-11T02:40:25;95422.03;;;11.09;100.00
10097;BME280;5087;42.662;23.466;2022-07-11T02:42:53;95424.44;;;11.20;100.00
10097;BME280;5087;42.662;23.466;2022-07-11T02:45:20;95423.47;;;11.16;100.00
10097;BME280;5087;42.662;23.466;2022-07-11T02:47:48;95441.72;;;11.33;100.00
10097;BME280;5087;42.662;23.466;2022-07-11T02:50:16;95424.44;;;11.29;100.00
10097;BME280;5087;42.662;23.466;2022-07-11T02:52:44;95441.72;;;11.59;100.00
10097;BME280;5087;42.662;23.466;2022-07-11T02:55:12;95441.53;;;11.64;100.00
10097;BME280;5087;42.662;23.466;2022-07-11T02:57:41;95414.34;;;11.64;100.00
10097;BME280;5087;42.662;23.466;2022-07-11T03:00:11;95438.44;;;11.92;100.00
10097;BME280;5087;42.662;23.466;2022-07-11T03:02:39;95439.72;;;12.03;100.00
10097;BME280;5087;42.662;23.466;2022-07-11T03:05:07;95437.31;;;12.11;100.00
10097;BME280;5087;42.662;23.466;2022-07-11T03:07:36;95407.72;;;12.00;100.00
10097;BME280;5087;42.662;23.466;2022-07-11T03:10:03;95426.25;;;12.16;100.00
10097;BME280;5087;42.662;23.466;2022-07-11T03:12:31;95435.13;;;12.43;100.00
10097;BME280;5087;42.662;23.466;2022-07-11T03:14:58;95447.91;;;12.51;100.00
10097;BME280;5087;42.662;23.466;2022-07-11T03:17:25;95436.13;;;12.68;100.00
10097;BME280;5087;42.662;23.466;2022-07-11T03:19:52;95445.47;;;12.88;100.00
10097;BME280;5087;42.662;23.466;2022-07-11T03:22:19;95445.63;;;13.13;100.00
10097;BME280;5087;42.662;23.466;2022-07-11T03:24:50;95398.81;;;12.90;100.00
10097;BME280;5087;42.662;23.466;2022-07-11T03:27:17;95437.91;;;13.15;100.00
10097;BME280;5087;42.662;23.466;2022-07-11T03:29:45;95433.44;;;13.40;100.00
10097;BME280;5087;42.662;23.466;2022-07-11T03:32:12;95456.16;;;13.44;100.00
10097;BME280;5087;42.662;23.466;2022-07-11T03:34:39;95456.09;;;13.53;100.00
10097;BME280;5087;42.662;23.466;2022-07-11T03:37:26;95457.63;;;13.42;100.00
10097;BME280;5087;42.662;23.466;2022-07-11T03:39:55;95439.66;;;13.41;100.00
10097;BME280;5087;42.662;23.466;2022-07-11T03:42:22;95438.34;;;13.47;100.00
10097;BME280;5087;42.662;23.466;2022-07-11T03:44:49;95429.28;;;13.55;100.00
10097;BME280;5087;42.662;23.466;2022-07-11T03:47:17;95450.69;;;13.66;100.00
10097;BME280;5087;42.662;23.466;2022-07-11T03:49:45;95448.88;;;13.70;100.00
10097;BME280;5087;42.662;23.466;2022-07-11T03:52:13;95447.09;;;13.74;100.00
10097;BME280;5087;42.662;23.466;2022-07-11T03:54:40;95420.63;;;13.53;100.00
10097;BME280;5087;42.662;23.466;2022-07-11T03:57:10;95458.53;;;13.88;100.00
10097;BME280;5087;42.662;23.466;2022-07-11T03:59:37;95464.22;;;13.96;100.00
10097;BME280;5087;42.662;23.466;2022-07-11T04:02:04;95464.94;;;14.05;100.00
10097;BME280;5087;42.662;23.466;2022-07-11T04:04:31;95471.34;;;14.21;100.00
10097;BME280;5087;42.662;23.466;2022-07-11T04:06:58;95465.22;;;14.37;100.00
10097;BME280;5087;42.662;23.466;2022-07-11T04:09:25;95459.31;;;14.35;100.00
10097;BME280;5087;42.662;23.466;2022-07-11T04:11:52;95467.09;;;14.57;100.00
10097;BME280;5087;42.662;23.466;2022-07-11T04:14:21;95469.34;;;14.55;100.00
10097;BME280;5087;42.662;23.466;2022-07-11T04:16:48;95415.97;;;14.46;100.00
10097;BME280;5087;42.662;23.466;2022-07-11T04:19:15;95470.78;;;14.86;100.00
10097;BME280;5087;42.662;23.466;2022-07-11T04:21:42;95461.22;;;14.80;100.00
10097;BME280;5087;42.662;23.466;2022-07-11T04:24:09;95483.72;;;15.14;100.00
10097;BME280;5087;42.662;23.466;2022-07-11T04:26:36;95449.81;;;15.03;100.00
10097;BME280;5087;42.662;23.466;2022-07-11T04:29:03;95480.19;;;15.26;100.00
10097;BME280;5087;42.662;23.466;2022-07-11T04:31:32;95462.41;;;15.32;100.00
10097;BME280;5087;42.662;23.466;2022-07-11T04:33:59;95486.19;;;15.44;100.00
10097;BME280;5087;42.662;23.466;2022-07-11T04:36:26;95474.03;;;15.70;100.00
10097;BME280;5087;42.662;23.466;2022-07-11T04:38:53;95493.41;;;15.77;100.00
10097;BME280;5087;42.662;23.466;2022-07-11T04:41:20;95468.78;;;15.90;100.00
10097;BME280;5087;42.662;23.466;2022-07-11T04:43:47;95489.94;;;15.93;100.00
10097;BME280;5087;42.662;23.466;2022-07-11T04:46:15;95450.56;;;15.69;100.00
10097;BME280;5087;42.662;23.466;2022-07-11T04:48:43;95469.66;;;15.53;100.00
10097;BME280;5087;42.662;23.466;2022-07-11T04:51:10;95481.16;;;15.46;100.00
10097;BME280;5087;42.662;23.466;2022-07-11T04:53:37;95468.88;;;15.40;100.00
10097;BME280;5087;42.662;23.466;2022-07-11T04:56:05;95466.66;;;15.58;100.00
10097;BME280;5087;42.662;23.466;2022-07-11T04:58:33;95486.97;;;15.98;100.00
10097;BME280;5087;42.662;23.466;2022-07-11T05:01:01;95468.16;;;15.96;100.00
10097;BME280;5087;42.662;23.466;2022-07-11T05:03:28;95479.25;;;16.16;100.00
10097;BME280;5087;42.662;23.466;2022-07-11T05:05:57;95432.81;;;15.91;100.00
10097;BME280;5087;42.662;23.466;2022-07-11T05:08:24;95480.03;;;16.17;100.00
10097;BME280;5087;42.662;23.466;2022-07-11T05:10:51;95472.31;;;16.06;100.00
10097;BME280;5087;42.662;23.466;2022-07-11T05:13:18;95483.56;;;16.17;100.00
10097;BME280;5087;42.662;23.466;2022-07-11T05:15:45;95464.38;;;16.01;100.00
10097;BME280;5087;42.662;23.466;2022-07-11T05:18:13;95493.06;;;16.36;100.00
10097;BME280;5087;42.662;23.466;2022-07-11T05:20:40;95470.22;;;16.16;100.00
10097;BME280;5087;42.662;23.466;2022-07-11T05:23:09;95482.28;;;16.43;100.00
10097;BME280;5087;42.662;23.466;2022-07-11T05:25:36;95488.03;;;16.54;100.00
10097;BME280;5087;42.662;23.466;2022-07-11T05:28:04;95483.72;;;16.85;100.00
10097;BME280;5087;42.662;23.466;2022-07-11T05:30:31;95456.41;;;16.40;100.00
10097;BME280;5087;42.662;23.466;2022-07-11T05:32:58;95488.44;;;16.24;100.00
10097;BME280;5087;42.662;23.466;2022-07-11T05:35:26;95494.03;;;15.99;100.00
10097;BME280;5087;42.662;23.466;2022-07-11T05:37:53;95508.53;;;16.00;100.00
10097;BME280;5087;42.662;23.466;2022-07-11T05:40:21;95496.88;;;16.03;100.00
10097;BME280;5087;42.662;23.466;2022-07-11T05:42:49;95464.66;;;15.83;100.00
10097;BME280;5087;42.662;23.466;2022-07-11T05:45:16;95485.97;;;15.90;100.00
10097;BME280;5087;42.662;23.466;2022-07-11T05:47:43;95493.50;;;15.81;100.00
10097;BME280;5087;42.662;23.466;2022-07-11T05:50:10;95504.00;;;16.20;100.00
10097;BME280;5087;42.662;23.466;2022-07-11T05:52:37;95497.94;;;16.42;100.00
10097;BME280;5087;42.662;23.466;2022-07-11T05:55:05;95481.78;;;16.69;100.00
10097;BME280;5087;42.662;23.466;2022-07-11T05:57:34;95505.16;;;16.95;100.00
10097;BME280;5087;42.662;23.466;2022-07-11T06:00:01;95485.31;;;17.18;100.00
10097;BME280;5087;42.662;23.466;2022-07-11T06:02:35;95498.94;;;16.98;100.00
10097;BME280;5087;42.662;23.466;2022-07-11T06:05:02;95473.56;;;17.01;100.00
10097;BME280;5087;42.662;23.466;2022-07-11T06:07:29;95502.63;;;17.38;100.00
10097;BME280;5087;42.662;23.466;2022-07-11T06:10:14;95500.22;;;17.92;100.00
10097;BME280;5087;42.662;23.466;2022-07-11T06:12:43;95504.31;;;17.62;100.00
10097;BME280;5087;42.662;23.466;2022-07-11T06:15:10;95506.88;;;17.35;100.00
10097;BME280;5087;42.662;23.466;2022-07-11T06:17:37;95511.72;;;17.42;100.00
10097;BME280;5087;42.662;23.466;2022-07-11T06:20:05;95500.41;;;17.63;100.00
10097;BME280;5087;42.662;23.466;2022-07-11T06:22:33;95510.78;;;17.70;100.00
10097;BME280;5087;42.662;23.466;2022-07-11T06:25:01;95504.34;;;18.21;97.62
10097;BME280;5087;42.662;23.466;2022-07-11T06:27:28;95512.00;;;17.92;99.46
10097;BME280;5087;42.662;23.466;2022-07-11T06:29:56;95506.91;;;17.75;90.08
10097;BME280;5087;42.662;23.466;2022-07-11T06:32:23;95517.78;;;17.87;87.08
10097;BME280;5087;42.662;23.466;2022-07-11T06:34:50;95514.00;;;17.76;88.30
10097;BME280;5087;42.662;23.466;2022-07-11T06:37:18;95518.09;;;18.01;89.29
10097;BME280;5087;42.662;23.466;2022-07-11T06:39:46;95523.63;;;17.85;85.51
10097;BME280;5087;42.662;23.466;2022-07-11T06:42:13;95508.38;;;17.68;82.98
10097;BME280;5087;42.662;23.466;2022-07-11T06:44:40;95505.69;;;17.52;84.50
10097;BME280;5087;42.662;23.466;2022-07-11T06:47:09;95497.91;;;17.94;81.81
10097;BME280;5087;42.662;23.466;2022-07-11T06:49:36;95497.84;;;18.29;80.21
10097;BME280;5087;42.662;23.466;2022-07-11T06:52:03;95492.94;;;18.19;78.96
10097;BME280;5087;42.662;23.466;2022-07-11T06:54:31;95494.16;;;18.02;76.39
10097;BME280;5087;42.662;23.466;2022-07-11T06:56:58;95503.63;;;18.24;68.56
10097;BME280;5087;42.662;23.466;2022-07-11T06:59:25;95484.19;;;18.13;65.97
10097;BME280;5087;42.662;23.466;2022-07-11T07:01:52;95485.44;;;17.96;65.89
10097;BME280;5087;42.662;23.466;2022-07-11T07:04:21;95491.16;;;18.07;68.54
10097;BME280;5087;42.662;23.466;2022-07-11T07:06:48;95468.97;;;18.39;66.84
10097;BME280;5087;42.662;23.466;2022-07-11T07:09:15;95487.84;;;18.64;67.14
10097;BME280;5087;42.662;23.466;2022-07-11T07:11:42;95465.06;;;18.87;67.40
10097;BME280;5087;42.662;23.466;2022-07-11T07:14:09;95471.41;;;18.01;63.57
10097;BME280;5087;42.662;23.466;2022-07-11T07:16:37;95493.50;;;18.28;66.62
10097;BME280;5087;42.662;23.466;2022-07-11T07:19:05;95504.03;;;18.46;65.40
10097;BME280;5087;42.662;23.466;2022-07-11T07:21:33;95509.22;;;18.51;65.63
10097;BME280;5087;42.662;23.466;2022-07-11T07:24:00;95498.13;;;18.67;64.20
10097;BME280;5087;42.662;23.466;2022-07-11T07:26:27;95494.69;;;18.74;64.38
10097;BME280;5087;42.662;23.466;2022-07-11T07:28:55;95486.50;;;18.31;65.56
10097;BME280;5087;42.662;23.466;2022-07-11T07:31:22;95491.44;;;18.22;65.66
10097;BME280;5087;42.662;23.466;2022-07-11T07:33:49;95461.28;;;18.06;65.58
10097;BME280;5087;42.662;23.466;2022-07-11T07:36:17;95485.72;;;18.11;65.04
10097;BME280;5087;42.662;23.466;2022-07-11T07:38:46;95480.88;;;18.04;64.66
10097;BME280;5087;42.662;23.466;2022-07-11T07:41:13;95467.38;;;17.95;64.41
10097;BME280;5087;42.662;23.466;2022-07-11T07:43:41;95451.13;;;18.29;64.05
10097;BME280;5087;42.662;23.466;2022-07-11T07:46:08;95451.38;;;18.44;64.94
10097;BME280;5087;42.662;23.466;2022-07-11T07:48:36;95446.53;;;18.14;65.74
10097;BME280;5087;42.662;23.466;2022-07-11T07:51:03;95478.53;;;18.92;67.82
10097;BME280;5087;42.662;23.466;2022-07-11T07:53:30;95475.50;;;18.54;64.95
10097;BME280;5087;42.662;23.466;2022-07-11T07:55:59;95470.00;;;18.54;nan
10097;BME280;5087;42.662;23.466;2022-07-11T07:58:26;95453.53;;;18.54;67.18
10097;BME280;5087;42.662;23.466;2022-07-11T08:00:53;95457.78;;;18.28;66.64
10097;BME280;5087;42.662;23.466;2022-07-11T08:03:38;95464.59;;;18.58;68.04
10097;BME280;5087;42.662;23.466;2022-07-11T08:06:05;95489.47;;;18.88;65.62
10097;BME280;5087;42.662;23.466;2022-07-11T08:08:32;95470.34;;;18.49;67.17
10097;BME280;5087;42.662;23.466;2022-07-11T08:11:01;95464.63;;;18.61;67.37
10097;BME280;5087;42.662;23.466;2022-07-11T08:13:28;95472.56;;;18.66;68.60
10097;BME280;5087;42.662;23.466;2022-07-11T08:15:55;95474.25;;;18.94;66.16
10097;BME280;5087;42.662;23.466;2022-07-11T08:18:23;95480.94;;;18.50;66.43
10097;BME280;5087;42.662;23.466;2022-07-11T08:20:53;95480.28;;;18.57;66.93
10097;BME280;5087;42.662;23.466;2022-07-11T08:23:21;95481.72;;;18.51;66.58
10097;BME280;5087;42.662;23.466;2022-07-11T08:25:48;95503.03;;;19.01;63.97
10097;BME280;5087;42.662;23.466;2022-07-11T08:28:17;95493.84;;;19.16;64.39
10097;BME280;5087;42.662;23.466;2022-07-11T08:30:44;95497.41;;;18.93;63.24
10097;BME280;5087;42.662;23.466;2022-07-11T08:33:12;95497.22;;;19.06;63.78
10097;BME280;5087;42.662;23.466;2022-07-11T08:35:39;95507.50;;;19.36;61.99
10097;BME280;5087;42.662;23.466;2022-07-11T08:38:07;95486.00;;;19.72;58.56
10097;BME280;5087;42.662;23.466;2022-07-11T08:40:34;95503.31;;;19.19;59.17
10097;BME280;5087;42.662;23.466;2022-07-11T08:43:02;95486.84;;;19.22;58.68
10097;BME280;5087;42.662;23.466;2022-07-11T08:45:33;95483.03;;;18.80;60.54
10097;BME280;5087;42.662;23.466;2022-07-11T08:48:01;95487.09;;;18.90;60.04
10097;BME280;5087;42.662;23.466;2022-07-11T08:50:28;95490.38;;;19.76;59.04
10097;BME280;5087;42.662;23.466;2022-07-11T08:52:57;95469.19;;;18.50;58.96
10097;BME280;5087;42.662;23.466;2022-07-11T08:55:25;95488.06;;;18.98;60.70
10097;BME280;5087;42.662;23.466;2022-07-11T08:57:52;95487.22;;;19.21;60.43
10097;BME280;5087;42.662;23.466;2022-07-11T09:00:19;95472.19;;;18.91;60.02
10097;BME280;5087;42.662;23.466;2022-07-11T09:02:49;95484.47;;;19.21;58.34
10097;BME280;5087;42.662;23.466;2022-07-11T09:05:16;95485.94;;;19.41;59.51
10097;BME280;5087;42.662;23.466;2022-07-11T09:07:45;95467.16;;;19.47;57.17
10097;BME280;5087;42.662;23.466;2022-07-11T09:10:13;95479.16;;;19.08;55.23
10097;BME280;5087;42.662;23.466;2022-07-11T09:12:58;95484.91;;;19.23;53.62
10097;BME280;5087;42.662;23.466;2022-07-11T09:15:33;95474.47;;;19.09;52.54
10097;BME280;5087;42.662;23.466;2022-07-11T09:18:03;95473.00;;;19.15;54.18
10097;BME280;5087;42.662;23.466;2022-07-11T09:20:52;95456.59;;;19.83;52.76
10097;BME280;5087;42.662;23.466;2022-07-11T09:23:36;95468.22;;;19.39;52.55
10097;BME280;5087;42.662;23.466;2022-07-11T09:26:21;95492.03;;;19.54;54.12
10097;BME280;5087;42.662;23.466;2022-07-11T09:28:59;95465.69;;;19.00;53.82
10097;BME280;5087;42.662;23.466;2022-07-11T09:31:27;95464.41;;;19.47;54.50
10097;BME280;5087;42.662;23.466;2022-07-11T09:34:00;95478.78;;;19.64;53.68
10097;BME280;5087;42.662;23.466;2022-07-11T09:36:35;95499.28;;;19.66;54.78
10097;BME280;5087;42.662;23.466;2022-07-11T09:39:04;95481.16;;;19.65;53.43
10097;BME280;5087;42.662;23.466;2022-07-11T09:41:32;95484.97;;;19.26;52.94
10097;BME280;5087;42.662;23.466;2022-07-11T09:44:07;95504.50;;;19.75;52.10
10097;BME280;5087;42.662;23.466;2022-07-11T09:46:34;95477.16;;;19.32;53.51
10097;BME280;5087;42.662;23.466;2022-07-11T09:49:03;95496.47;;;19.63;53.03
10097;BME280;5087;42.662;23.466;2022-07-11T09:51:31;95506.72;;;20.61;53.10
10097;BME280;5087;42.662;23.466;2022-07-11T09:54:00;95484.03;;;20.03;52.75
10097;BME280;5087;42.662;23.466;2022-07-11T09:56:33;95506.25;;;20.17;54.75
10097;BME280;5087;42.662;23.466;2022-07-11T09:59:01;95498.91;;;20.70;52.30
10097;BME280;5087;42.662;23.466;2022-07-11T10:01:31;95500.47;;;20.67;52.34
10097;BME280;5087;42.662;23.466;2022-07-11T10:03:58;95505.31;;;20.40;51.07
10097;BME280;5087;42.662;23.466;2022-07-11T10:06:27;95464.97;;;19.90;52.17
10097;BME280;5087;42.662;23.466;2022-07-11T10:08:54;95508.06;;;20.40;52.13
10097;BME280;5087;42.662;23.466;2022-07-11T10:11:23;95516.09;;;20.56;51.56
10097;BME280;5087;42.662;23.466;2022-07-11T10:13:50;95516.28;;;20.33;51.95
10097;BME280;5087;42.662;23.466;2022-07-11T10:16:24;95503.38;;;20.44;51.72
10097;BME280;5087;42.662;23.466;2022-07-11T10:18:59;95508.47;;;20.76;50.23
10097;BME280;5087;42.662;23.466;2022-07-11T10:21:36;95494.16;;;21.60;50.24
10097;BME280;5087;42.662;23.466;2022-07-11T10:24:17;95486.91;;;20.89;51.48
10097;BME280;5087;42.662;23.466;2022-07-11T10:26:57;95507.31;;;20.43;52.49
10097;BME280;5087;42.662;23.466;2022-07-11T10:29:31;95493.91;;;20.79;51.62
10097;BME280;5087;42.662;23.466;2022-07-11T10:32:07;95502.28;;;20.90;50.82
10097;BME280;5087;42.662;23.466;2022-07-11T10:34:35;95496.06;;;21.04;51.02
10097;BME280;5087;42.662;23.466;2022-07-11T10:37:05;95493.69;;;20.99;51.20
10097;BME280;5087;42.662;23.466;2022-07-11T10:39:34;95500.91;;;20.32;49.86
10097;BME280;5087;42.662;23.466;2022-07-11T10:42:04;95499.38;;;20.38;49.76
10097;BME280;5087;42.662;23.466;2022-07-11T10:44:48;95493.44;;;20.36;50.86
10097;BME280;5087;42.662;23.466;2022-07-11T10:47:33;95521.34;;;20.65;52.10
10097;BME280;5087;42.662;23.466;2022-07-11T10:50:21;95506.59;;;20.50;52.63
10097;BME280;5087;42.662;23.466;2022-07-11T10:52:57;95508.00;;;20.33;53.98
10097;BME280;5087;42.662;23.466;2022-07-11T10:55:33;95503.09;;;20.94;52.57
10097;BME280;5087;42.662;23.466;2022-07-11T10:58:13;95498.34;;;20.16;52.11
10097;BME280;5087;42.662;23.466;2022-07-11T11:00:45;95503.38;;;20.44;53.91
10097;BME280;5087;42.662;23.466;2022-07-11T11:03:15;95468.09;;;20.61;53.82
10097;BME280;5087;42.662;23.466;2022-07-11T11:05:51;95506.38;;;21.07;53.08
10097;BME280;5087;42.662;23.466;2022-07-11T11:08:44;95517.22;;;21.34;52.74
10097;BME280;5087;42.662;23.466;2022-07-11T11:11:37;95503.78;;;20.80;51.47
10097;BME280;5087;42.662;23.466;2022-07-11T11:14:21;95512.63;;;21.04;50.50
10097;BME280;5087;42.662;23.466;2022-07-11T11:16:51;95510.28;;;21.06;52.04
10097;BME280;5087;42.662;23.466;2022-07-11T11:22:26;95515.75;;;20.99;50.17
10097;BME280;5087;42.662;23.466;2022-07-11T11:24:56;95525.75;;;20.73;51.49
10097;BME280;5087;42.662;23.466;2022-07-11T11:27:24;95504.16;;;20.41;51.43
10097;BME280;5087;42.662;23.466;2022-07-11T11:29:53;95527.75;;;20.73;49.76
10097;BME280;5087;42.662;23.466;2022-07-11T11:32:22;95516.75;;;21.25;52.30
10097;BME280;5087;42.662;23.466;2022-07-11T11:34:49;95514.41;;;21.30;49.11
10097;BME280;5087;42.662;23.466;2022-07-11T11:37:17;95527.13;;;20.56;50.77
10097;BME280;5087;42.662;23.466;2022-07-11T11:39:44;95511.72;;;20.89;50.85
10097;BME280;5087;42.662;23.466;2022-07-11T11:42:15;95505.13;;;21.01;50.02
10097;BME280;5087;42.662;23.466;2022-07-11T11:44:53;95498.19;;;21.22;50.71
10097;BME280;5087;42.662;23.466;2022-07-11T11:47:22;95520.84;;;21.45;51.18
10097;BME280;5087;42.662;23.466;2022-07-11T11:49:50;95524.25;;;21.28;50.40
10097;BME280;5087;42.662;23.466;2022-07-11T11:52:18;95516.41;;;21.33;51.93
10097;BME280;5087;42.662;23.466;2022-07-11T11:54:53;95516.66;;;21.10;50.53
10097;BME280;5087;42.662;23.466;2022-07-11T11:57:25;95514.75;;;20.77;52.01
10097;BME280;5087;42.662;23.466;2022-07-11T11:59:52;95490.25;;;21.13;49.28
10097;BME280;5087;42.662;23.466;2022-07-11T12:02:27;95513.53;;;21.15;50.76
10097;BME280;5087;42.662;23.466;2022-07-11T12:04:55;95501.09;;;20.87;50.43
10097;BME280;5087;42.662;23.466;2022-07-11T12:07:25;95507.66;;;21.21;50.52
10097;BME280;5087;42.662;23.466;2022-07-11T12:09:54;95494.41;;;21.44;50.80
10097;BME280;5087;42.662;23.466;2022-07-11T12:12:25;95505.72;;;21.88;51.05
10097;BME280;5087;42.662;23.466;2022-07-11T12:15:29;95497.31;;;21.66;49.77
10097;BME280;5087;42.662;23.466;2022-07-11T12:18:00;95507.94;;;21.08;51.22
10097;BME280;5087;42.662;23.466;2022-07-11T12:20:47;95461.16;;;20.74;51.94
10097;BME280;5087;42.662;23.466;2022-07-11T12:23:17;95463.19;;;20.81;53.08
10097;BME280;5087;42.662;23.466;2022-07-11T12:25:45;95481.09;;;21.05;52.81
10097;BME280;5087;42.662;23.466;2022-07-11T12:28:16;95493.28;;;21.56;51.10
10097;BME280;5087;42.662;23.466;2022-07-11T12:30:43;95498.38;;;21.50;49.76
10097;BME280;5087;42.662;23.466;2022-07-11T12:33:12;95496.59;;;21.80;49.19
10097;BME280;5087;42.662;23.466;2022-07-11T12:35:53;95492.63;;;21.70;48.89
10097;BME280;5087;42.662;23.466;2022-07-11T12:38:21;95500.22;;;21.91;49.59
10097;BME280;5087;42.662;23.466;2022-07-11T12:41:02;95499.00;;;21.89;50.81
10097;BME280;5087;42.662;23.466;2022-07-11T12:43:41;95491.16;;;21.98;48.12
10097;BME280;5087;42.662;23.466;2022-07-11T12:46:28;95493.63;;;22.21;48.83
10097;BME280;5087;42.662;23.466;2022-07-11T12:48:56;95491.94;;;21.91;49.11
10097;BME280;5087;42.662;23.466;2022-07-11T12:51:29;95489.94;;;21.88;50.93
10097;BME280;5087;42.662;23.466;2022-07-11T12:54:01;95495.94;;;22.01;48.13
10097;BME280;5087;42.662;23.466;2022-07-11T12:56:28;95488.78;;;21.96;47.84
10097;BME280;5087;42.662;23.466;2022-07-11T12:58:57;95492.78;;;22.10;47.94
10097;BME280;5087;42.662;23.466;2022-07-11T13:01:24;95491.28;;;21.49;49.15
10097;BME280;5087;42.662;23.466;2022-07-11T13:03:51;95470.53;;;21.74;49.50
10097;BME280;5087;42.662;23.466;2022-07-11T13:06:20;95489.63;;;22.11;48.95
10097;BME280;5087;42.662;23.466;2022-07-11T13:09:08;95477.34;;;21.98;49.53